Time;durP1;ratioP1;P1;durP2;ratioP2;P2;SDS_P1;SDS_P2;PMS_P1;PMS_P2;Temp;Humidity;BMP_temperature;BMP_pressure;BME280_temperature;BME280_humidity;BME280_pressure;Samples;Min_cycle;Max_cycle;Signal;HPM_P1;HPM_P2
2022/05/11 00:00:12;;;;;;;13.73;12.27;;;17.10;99.90;;;;;;5065010;28;20418;-70
2022/05/11 00:02:38;;;;;;;15.63;12.20;;;17.10;99.90;;;;;;5063939;28;20267;-70
2022/05/11 00:05:07;;;;;;;13.80;12.40;;;17.10;99.90;;;;;;5066139;28;20502;-70
2022/05/11 00:07:33;;;;;;;19.60;12.77;;;17.10;99.90;;;;;;5062390;28;20464;-70
2022/05/11 00:09:58;;;;;;;15.73;12.60;;;17.60;99.90;;;;;;5066910;28;20414;-70
2022/05/11 00:12:24;;;;;;;16.20;12.87;;;17.10;99.90;;;;;;5065120;28;20189;-70
2022/05/11 00:14:50;;;;;;;16.27;12.60;;;17.10;99.90;;;;;;5066259;28;20287;-71
2022/05/11 00:17:15;;;;;;;15.80;13.00;;;17.10;99.90;;;;;;5064824;28;20212;-70
2022/05/11 00:19:41;;;;;;;17.00;12.73;;;17.10;99.90;;;;;;5066785;28;20502;-69
2022/05/11 00:22:06;;;;;;;17.53;13.33;;;17.10;99.90;;;;;;5064243;28;20169;-71
2022/05/11 00:24:32;;;;;;;15.40;13.00;;;17.10;99.90;;;;;;5067393;28;20771;-71
2022/05/11 00:26:57;;;;;;;13.87;11.70;;;17.10;99.90;;;;;;5064349;28;20573;-71
2022/05/11 00:29:23;;;;;;;13.57;12.17;;;17.10;99.90;;;;;;5066570;28;20252;-71
2022/05/11 00:31:49;;;;;;;19.43;13.10;;;17.10;99.90;;;;;;5063690;28;20286;-71
2022/05/11 00:34:14;;;;;;;16.13;12.50;;;17.10;99.90;;;;;;5056038;28;20189;-71
2022/05/11 00:36:40;;;;;;;14.87;12.70;;;17.10;99.90;;;;;;5050391;28;20208;-71
2022/05/11 00:39:05;;;;;;;13.97;12.47;;;17.10;99.90;;;;;;5067072;28;20176;-71
2022/05/11 00:41:31;;;;;;;12.50;11.20;;;17.10;99.90;;;;;;5064504;28;20172;-72
2022/05/11 00:43:59;;;;;;;15.23;12.00;;;17.10;99.90;;;;;;5066251;28;20226;-72
2022/05/11 00:46:35;;;;;;;14.20;12.70;;;17.10;99.90;;;;;;5064716;28;20212;-71
2022/05/11 00:51:58;;;;;;;13.00;11.70;;;17.10;99.90;;;;;;5064700;28;20915;-72
2022/05/11 00:54:27;;;;;;;12.40;11.20;;;17.10;99.90;;;;;;5066398;28;20499;-71
2022/05/11 00:56:57;;;;;;;21.73;11.73;;;17.10;99.90;;;;;;5063467;28;20462;-71
2022/05/11 00:59:27;;;;;;;12.90;11.37;;;17.10;99.90;;;;;;5061296;28;20453;-72
2022/05/11 01:01:53;;;;;;;12.37;11.07;;;17.10;99.90;;;;;;5063500;28;20466;-71
2022/05/11 01:04:21;;;;;;;13.60;11.73;;;17.20;99.90;;;;;;5066999;28;20904;-71
2022/05/11 01:06:47;;;;;;;15.10;12.20;;;17.20;99.90;;;;;;5065277;28;20304;-71
2022/05/11 01:09:13;;;;;;;15.90;11.83;;;17.20;99.90;;;;;;5066628;28;20415;-71
2022/05/11 01:11:50;;;;;;;13.27;11.90;;;17.20;99.90;;;;;;5064573;28;20460;-71
2022/05/11 01:14:20;;;;;;;13.60;12.00;;;17.20;99.90;;;;;;5067970;28;20414;-70
2022/05/11 01:16:46;;;;;;;13.70;11.20;;;17.20;99.90;;;;;;5068031;28;20514;-72
2022/05/11 01:19:24;;;;;;;12.30;10.70;;;17.10;99.90;;;;;;5070077;28;20496;-71
2022/05/11 01:21:55;;;;;;;13.23;11.83;;;17.10;99.90;;;;;;5068051;28;20442;-71
2022/05/11 01:24:35;;;;;;;13.20;11.70;;;17.10;99.90;;;;;;5070221;28;20422;-71
2022/05/11 01:27:21;;;;;;;14.80;12.10;;;17.00;99.90;;;;;;5067382;28;20461;-71
2022/05/11 01:29:46;;;;;;;20.40;12.10;;;17.00;99.90;;;;;;5069618;28;20534;-71
2022/05/11 01:32:12;;;;;;;13.27;11.00;;;17.00;99.90;;;;;;5066260;28;21000;-71
2022/05/11 01:34:37;;;;;;;14.47;12.77;;;16.90;99.90;;;;;;5069210;28;20176;-71
2022/05/11 01:37:04;;;;;;;12.50;11.20;;;16.80;99.90;;;;;;5068374;28;20651;-71
2022/05/11 01:39:29;;;;;;;12.93;11.57;;;16.80;99.90;;;;;;5069973;28;20173;-71
2022/05/11 01:41:55;;;;;;;23.93;11.23;;;16.80;99.90;;;;;;5065451;28;20980;-71
2022/05/11 01:44:22;;;;;;;16.30;11.37;;;16.80;99.90;;;;;;5063098;28;20190;-71
2022/05/11 01:46:52;;;;;;;12.93;11.10;;;16.70;99.90;;;;;;5065514;28;20192;-72
2022/05/11 01:49:19;;;;;;;13.60;11.40;;;16.70;99.90;;;;;;5064126;28;20452;-71
2022/05/11 01:51:45;;;;;;;12.87;11.00;;;16.70;99.90;;;;;;5067065;28;20407;-71
2022/05/11 01:54:11;;;;;;;13.93;10.83;;;16.70;99.90;;;;;;5069120;28;20805;-71
2022/05/11 01:56:37;;;;;;;16.23;10.60;;;16.60;99.90;;;;;;5061010;28;20446;-71
2022/05/11 01:59:02;;;;;;;13.87;10.93;;;16.60;99.90;;;;;;5067491;28;20415;-72
2022/05/11 02:01:29;;;;;;;12.00;10.70;;;16.60;99.90;;;;;;5066539;28;20176;-71
2022/05/11 02:03:56;;;;;;;11.83;10.53;;;16.50;99.90;;;;;;5069200;28;20172;-71
2022/05/11 02:09:07;;;;;;;12.33;11.03;;;16.50;99.90;;;;;;5069452;28;20505;-71
2022/05/11 02:11:33;;;;;;;11.20;10.00;;;16.50;99.90;;;;;;5066861;28;20434;-71
2022/05/11 02:13:59;;;;;;;11.90;10.60;;;16.50;99.90;;;;;;5068428;28;20899;-71
2022/05/11 02:16:25;;;;;;;12.30;10.10;;;16.50;99.90;;;;;;5067365;28;20773;-70
2022/05/11 02:18:51;;;;;;;12.40;10.10;;;16.50;99.90;;;;;;5066856;28;20226;-71
2022/05/11 02:21:17;;;;;;;12.10;10.87;;;16.50;99.90;;;;;;5067027;28;20548;-71
2022/05/11 02:23:43;;;;;;;10.73;9.73;;;16.40;99.90;;;;;;5067478;28;21016;-72
2022/05/11 02:26:11;;;;;;;14.80;10.87;;;16.40;99.90;;;;;;5065433;28;20206;-72
2022/05/11 02:28:36;;;;;;;12.03;10.70;;;16.40;99.90;;;;;;5067767;28;20485;-71
2022/05/11 02:31:02;;;;;;;12.90;10.67;;;16.30;99.90;;;;;;5067305;28;20952;-71
2022/05/11 02:33:28;;;;;;;12.13;9.83;;;16.30;99.90;;;;;;5067666;28;20198;-71
2022/05/11 02:35:54;;;;;;;13.57;10.53;;;16.30;99.90;;;;;;5067280;28;20207;-70
2022/05/11 02:38:25;;;;;;;12.03;10.40;;;16.20;99.90;;;;;;5068690;28;20172;-71
2022/05/11 02:40:52;;;;;;;10.70;9.70;;;16.30;99.90;;;;;;5065846;28;20504;-71
2022/05/11 02:43:17;;;;;;;12.37;10.23;;;16.20;99.90;;;;;;5068157;28;20430;-71
2022/05/11 02:45:43;;;;;;;12.77;10.20;;;16.20;99.90;;;;;;5066899;28;20450;-71
2022/05/11 02:48:12;;;;;;;12.30;9.57;;;16.20;99.90;;;;;;5067829;28;20180;-72
2022/05/11 02:50:43;;;;;;;14.30;9.60;;;16.20;99.90;;;;;;5066596;28;20441;-71
2022/05/11 02:53:11;;;;;;;10.77;9.67;;;16.20;99.90;;;;;;5067207;28;20471;-72
2022/05/11 02:55:39;;;;;;;11.03;9.83;;;16.20;99.90;;;;;;5065300;28;20461;-71
2022/05/11 02:58:05;;;;;;;11.50;9.20;;;16.20;99.90;;;;;;5067983;28;20437;-71
2022/05/11 03:00:31;;;;;;;13.93;9.27;;;16.20;99.90;;;;;;5066560;28;20431;-71
2022/05/11 03:02:58;;;;;;;12.37;10.17;;;16.20;99.90;;;;;;5066563;28;20458;-71
2022/05/11 03:05:24;;;;;;;15.80;10.47;;;16.20;99.90;;;;;;5066410;28;20432;-73
2022/05/11 03:07:50;;;;;;;11.23;9.00;;;16.10;99.90;;;;;;5068045;28;20463;-70
2022/05/11 03:10:15;;;;;;;11.20;9.70;;;16.20;99.90;;;;;;5067171;28;20743;-71
2022/05/11 03:12:41;;;;;;;10.67;9.57;;;16.10;99.90;;;;;;5066559;28;20208;-71
2022/05/11 03:15:08;;;;;;;13.40;10.00;;;16.10;99.90;;;;;;5066733;28;20181;-70
2022/05/11 03:17:34;;;;;;;10.33;9.23;;;16.10;99.90;;;;;;5066374;28;20176;-70
2022/05/11 03:19:59;;;;;;;10.13;9.03;;;16.10;99.90;;;;;;5066760;28;20809;-71
2022/05/11 03:22:25;;;;;;;11.03;9.20;;;16.10;99.90;;;;;;5066169;28;20259;-71
2022/05/11 03:24:50;;;;;;;10.63;9.07;;;16.00;99.90;;;;;;5066188;28;20238;-71
2022/05/11 03:27:17;;;;;;;10.23;9.10;;;16.00;99.90;;;;;;5064649;28;20211;-71
2022/05/11 03:29:42;;;;;;;10.80;8.90;;;16.00;99.90;;;;;;5066606;28;20877;-71
2022/05/11 03:34:59;;;;;;;11.27;9.17;;;15.90;99.90;;;;;;5065524;28;20195;-71
2022/05/11 03:37:25;;;;;;;13.10;9.10;;;15.90;99.90;;;;;;5064935;28;20448;-71
2022/05/11 03:39:50;;;;;;;9.90;8.90;;;15.90;99.90;;;;;;5066433;28;20208;-71
2022/05/11 03:42:18;;;;;;;10.07;8.93;;;15.90;99.90;;;;;;5061564;28;20177;-70
2022/05/11 03:44:44;;;;;;;11.23;9.73;;;15.80;99.90;;;;;;5065952;28;20263;-71
2022/05/11 03:47:10;;;;;;;12.80;9.70;;;15.70;99.90;;;;;;5066206;28;20462;-71
2022/05/11 03:49:36;;;;;;;10.97;8.77;;;15.70;99.90;;;;;;5066227;28;20512;-71
2022/05/11 03:52:02;;;;;;;11.00;9.53;;;15.70;99.90;;;;;;5066284;28;20168;-71
2022/05/11 03:54:28;;;;;;;10.70;9.23;;;15.70;99.90;;;;;;5065888;28;20183;-71
2022/05/11 03:56:53;;;;;;;10.50;9.40;;;15.70;99.90;;;;;;5064534;28;20455;-71
2022/05/11 03:59:19;;;;;;;11.00;9.40;;;15.70;99.90;;;;;;5065855;28;20180;-71
2022/05/11 04:01:44;;;;;;;11.70;9.90;;;15.70;99.90;;;;;;5065668;28;20204;-71
2022/05/11 04:04:10;;;;;;;11.03;9.87;;;15.70;99.90;;;;;;5065743;28;20180;-71
2022/05/11 04:06:36;;;;;;;10.67;9.57;;;15.70;99.90;;;;;;5066369;28;20287;-71
2022/05/11 04:09:02;;;;;;;11.87;9.80;;;15.60;99.90;;;;;;5066374;28;20249;-71
2022/05/11 04:11:29;;;;;;;10.47;9.47;;;15.60;99.90;;;;;;5065580;28;20180;-71
2022/05/11 04:13:55;;;;;;;11.27;10.07;;;15.60;99.90;;;;;;5066124;28;20177;-71
2022/05/11 04:16:21;;;;;;;9.87;8.83;;;15.60;99.90;;;;;;5065674;28;20438;-71
2022/05/11 04:18:46;;;;;;;12.70;10.20;;;15.60;99.90;;;;;;5065578;28;20751;-71
2022/05/11 04:21:13;;;;;;;11.30;10.00;;;15.60;99.90;;;;;;5065612;28;20739;-71
2022/05/11 04:23:42;;;;;;;10.97;8.93;;;15.60;99.90;;;;;;5065255;28;20225;-71
2022/05/11 04:26:08;;;;;;;12.77;10.00;;;15.60;99.90;;;;;;5064000;28;20458;-71
2022/05/11 04:28:34;;;;;;;10.93;9.80;;;15.60;99.90;;;;;;5066585;28;20441;-71
2022/05/11 04:31:01;;;;;;;12.83;9.70;;;15.60;99.90;;;;;;5064565;28;20488;-70
2022/05/11 04:33:27;;;;;;;14.23;10.90;;;15.60;99.90;;;;;;5064938;28;20533;-71
2022/05/11 04:35:53;;;;;;;11.40;10.13;;;15.60;99.90;;;;;;5064908;28;20458;-72
2022/05/11 04:38:18;;;;;;;10.17;9.17;;;15.60;99.90;;;;;;5066908;28;20815;-71
2022/05/11 04:40:44;;;;;;;11.40;9.97;;;15.60;99.90;;;;;;5065007;28;20659;-71
2022/05/11 04:43:10;;;;;;;10.37;9.10;;;15.50;99.90;;;;;;5064644;28;20191;-71
2022/05/11 04:45:41;;;;;;;12.27;10.13;;;15.60;99.90;;;;;;5064013;28;20371;-71
2022/05/11 04:48:06;;;;;;;10.60;9.50;;;15.60;99.90;;;;;;5058959;28;20422;-71
2022/05/11 04:50:33;;;;;;;11.07;9.23;;;15.60;99.90;;;;;;5068471;28;20888;-70
2022/05/11 04:52:59;;;;;;;10.47;8.97;;;15.70;99.90;;;;;;5068044;28;20172;-71
2022/05/11 04:55:24;;;;;;;14.70;9.57;;;15.70;99.90;;;;;;5067568;28;20431;-71
2022/05/11 04:57:50;;;;;;;12.10;9.40;;;16.00;99.90;;;;;;5070125;28;20284;-72
2022/05/11 05:00:15;;;;;;;10.20;9.20;;;15.90;99.90;;;;;;5069945;28;20259;-71
2022/05/11 05:02:41;;;;;;;12.00;9.63;;;16.00;99.90;;;;;;5067976;28;20219;-70
2022/05/11 05:05:09;;;;;;;11.40;9.50;;;16.20;99.90;;;;;;5064960;28;20199;-69
2022/05/11 05:07:35;;;;;;;11.20;9.47;;;16.30;99.90;;;;;;5067529;28;20222;-71
2022/05/11 05:10:05;;;;;;;11.13;9.93;;;16.40;99.90;;;;;;5066965;28;20438;-71
2022/05/11 05:12:31;;;;;;;10.73;9.63;;;16.50;99.90;;;;;;5068171;28;20180;-71
2022/05/11 05:14:56;;;;;;;10.57;9.47;;;16.60;99.90;;;;;;5066495;28;20431;-71
2022/05/11 05:17:22;;;;;;;13.70;10.60;;;16.70;99.90;;;;;;5067646;28;20208;-71
2022/05/11 05:19:49;;;;;;;10.33;9.10;;;16.80;99.90;;;;;;5069363;28;20191;-71
2022/05/11 05:22:15;;;;;;;11.80;9.93;;;16.90;99.90;;;;;;5066633;28;20179;-71
2022/05/11 05:24:41;;;;;;;13.97;9.57;;;17.00;99.90;;;;;;5068105;28;20925;-70
2022/05/11 05:27:06;;;;;;;11.87;8.73;;;17.20;99.90;;;;;;5068262;28;20469;-71
2022/05/11 05:32:17;;;;;;;10.87;9.50;;;17.40;99.90;;;;;;5066460;28;20199;-71
2022/05/11 05:34:43;;;;;;;11.10;9.03;;;17.90;99.90;;;;;;5069684;28;20443;-71
2022/05/11 05:37:10;;;;;;;10.67;9.57;;;17.80;99.90;;;;;;5067473;28;20481;-72
2022/05/11 05:39:36;;;;;;;21.80;9.70;;;17.90;99.90;;;;;;5069595;28;20430;-71
2022/05/11 05:42:02;;;;;;;11.37;9.40;;;18.00;99.90;;;;;;5067124;28;20518;-71
2022/05/11 05:44:31;;;;;;;11.70;9.10;;;18.10;99.90;;;;;;5069020;28;20180;-71
2022/05/11 05:47:02;;;;;;;10.70;9.20;;;18.20;99.90;;;;;;5066003;28;20236;-72
2022/05/11 05:49:28;;;;;;;10.40;9.27;;;18.30;99.90;;;;;;5068930;28;20777;-72
2022/05/11 05:51:54;;;;;;;12.73;8.73;;;18.50;99.90;;;;;;5067781;28;20444;-71
2022/05/11 05:54:20;;;;;;;23.07;10.10;;;18.60;99.90;;;;;;5069103;28;20439;-71
2022/05/11 05:56:45;;;;;;;16.03;9.60;;;18.60;99.90;;;;;;5066889;28;20208;-72
2022/05/11 05:59:11;;;;;;;12.10;9.70;;;18.70;99.90;;;;;;5068242;28;20200;-71
2022/05/11 06:01:38;;;;;;;18.00;9.70;;;18.80;99.90;;;;;;5066877;28;20185;-71
2022/05/11 06:04:05;;;;;;;15.73;9.57;;;18.90;99.90;;;;;;5066886;28;20271;-74
2022/05/11 06:06:30;;;;;;;15.00;8.90;;;18.90;99.90;;;;;;5065833;28;20434;-72
2022/05/11 06:08:56;;;;;;;16.90;8.90;;;19.00;99.90;;;;;;5068776;28;20414;-72
2022/05/11 06:11:21;;;;;;;11.10;9.23;;;19.10;99.30;;;;;;5064721;28;20173;-72
2022/05/11 06:13:47;;;;;;;12.67;9.13;;;19.30;98.20;;;;;;5069229;28;20168;-72
2022/05/11 06:16:15;;;;;;;13.38;8.85;;;19.40;96.10;;;;;;5066312;28;20464;-71
2022/05/11 06:18:43;;;;;;;15.23;9.00;;;19.50;95.60;;;;;;5068672;28;20188;-70
2022/05/11 06:21:10;;;;;;;11.53;9.30;;;19.60;95.20;;;;;;5066508;28;20780;-71
2022/05/11 06:23:36;;;;;;;16.33;9.40;;;19.60;91.90;;;;;;5068468;28;20429;-71
2022/05/11 06:26:02;;;;;;;12.47;9.47;;;19.70;92.70;;;;;;5066603;28;20488;-70
2022/05/11 06:28:28;;;;;;;12.00;9.43;;;19.70;93.60;;;;;;5069007;28;20865;-72
2022/05/11 06:30:53;;;;;;;10.93;9.63;;;19.80;93.50;;;;;;5066668;28;20172;-71
2022/05/11 06:33:19;;;;;;;15.63;9.97;;;19.80;94.30;;;;;;5068384;28;20566;-72
2022/05/11 06:35:45;;;;;;;10.53;9.07;;;;;;;;;;5061310;28;20729;-72
2022/05/11 06:38:11;;;;;;;11.17;9.23;;;20.00;89.00;;;;;;5064315;28;20468;-72
2022/05/11 06:40:37;;;;;;;17.30;9.43;;;20.10;90.90;;;;;;5065571;28;20441;-72
2022/05/11 06:43:04;;;;;;;9.70;8.70;;;20.20;84.30;;;;;;5066235;28;20631;-72
2022/05/11 06:45:30;;;;;;;10.70;8.47;;;20.30;87.30;;;;;;5052881;28;20905;-71
2022/05/11 06:47:56;;;;;;;15.00;7.67;;;20.40;81.30;;;;;;5039743;28;20581;-71
2022/05/11 06:50:24;;;;;;;10.83;8.40;;;20.50;80.90;;;;;;5038409;28;20508;-70
2022/05/11 06:52:51;;;;;;;14.37;8.73;;;20.70;79.20;;;;;;5055373;28;20175;-71
2022/05/11 07:00:46;;;;;;;10.27;8.10;;;21.30;69.80;;;;;;5060351;28;20537;-71
2022/05/11 07:03:12;;;;;;;9.83;8.00;;;21.50;57.80;;;;;;5059983;28;20434;-72
2022/05/11 07:05:38;;;;;;;10.70;8.20;;;21.60;52.10;;;;;;5062552;28;20572;-74
2022/05/11 07:08:03;;;;;;;10.13;8.53;;;21.70;65.50;;;;;;5062769;28;20827;-74
2022/05/11 07:10:31;;;;;;;15.80;7.87;;;21.90;48.20;;;;;;5062859;28;20184;-74
2022/05/11 07:12:57;;;;;;;12.13;8.20;;;22.00;48.20;;;;;;5061074;28;20554;-74
2022/05/11 07:15:23;;;;;;;11.67;8.07;;;22.10;48.10;;;;;;5062501;28;20429;-74
2022/05/11 07:17:52;;;;;;;8.73;7.73;;;22.20;54.30;;;;;;5062732;28;20494;-73
2022/05/11 07:20:33;;;;;;;9.90;7.70;;;22.40;48.30;;;;;;5060924;28;20516;-73
2022/05/11 07:23:01;;;;;;;9.80;7.80;;;23.60;49.40;;;;;;5058282;28;20796;-74
2022/05/11 07:25:28;;;;;;;8.87;7.23;;;22.50;48.50;;;;;;5056329;28;20540;-74
2022/05/11 07:27:56;;;;;;;9.00;7.47;;;22.40;48.40;;;;;;5064046;28;20500;-74
2022/05/11 07:30:26;;;;;;;9.10;8.03;;;22.60;48.60;;;;;;5062488;28;20422;-74
2022/05/11 07:32:51;;;;;;;8.63;7.73;;;22.90;48.80;;;;;;5060237;28;20951;-74
2022/05/11 07:35:17;;;;;;;8.50;7.60;;;23.00;48.90;;;;;;5060699;28;20438;-71
2022/05/11 07:37:46;;;;;;;10.23;7.13;;;23.10;49.10;;;;;;5058895;28;20180;-71
2022/05/11 07:40:13;;;;;;;10.10;7.20;;;23.40;46.40;;;;;;5063964;28;20226;-71
2022/05/11 07:42:38;;;;;;;10.23;6.90;;;23.40;42.20;;;;;;5061862;28;20509;-72
2022/05/11 07:45:04;;;;;;;8.50;7.60;;;23.50;40.20;;;;;;5061321;28;20517;-72
2022/05/11 07:47:30;;;;;;;8.93;7.40;;;23.60;40.90;;;;;;5062869;28;20310;-72
2022/05/11 07:49:55;;;;;;;18.03;8.00;;;23.70;37.30;;;;;;5062377;28;20565;-72
2022/05/11 07:52:21;;;;;;;9.63;7.40;;;23.90;37.60;;;;;;5062650;28;20187;-72
2022/05/11 07:54:47;;;;;;;9.13;7.10;;;24.40;34.20;;;;;;5060327;28;21376;-71
2022/05/11 07:59:56;;;;;;;8.50;6.73;;;24.20;31.60;;;;;;5062537;28;20676;-72
2022/05/11 08:02:26;;;;;;;9.40;7.10;;;24.60;29.20;;;;;;5061062;28;20461;-72
2022/05/11 08:04:53;;;;;;;9.10;6.87;;;25.50;27.80;;;;;;5061138;28;20248;-73
2022/05/11 08:07:19;;;;;;;12.73;7.20;;;25.30;29.30;;;;;;5061366;28;20519;-72
2022/05/11 08:09:45;;;;;;;9.27;6.53;;;25.60;24.60;;;;;;5062072;28;20509;-71
2022/05/11 08:12:11;;;;;;;11.33;6.70;;;25.70;20.40;;;;;;5063116;28;20424;-71
2022/05/11 08:14:36;;;;;;;11.70;6.67;;;25.50;19.80;;;;;;5060958;28;20610;-72
2022/05/11 08:17:02;;;;;;;8.20;7.40;;;25.50;25.50;;;;;;5057724;28;20301;-72
2022/05/11 08:19:28;;;;;;;7.87;7.07;;;25.70;19.00;;;;;;5062180;28;20635;-72
2022/05/11 08:21:55;;;;;;;8.07;6.80;;;26.00;18.20;;;;;;5061496;28;20179;-72
2022/05/11 08:24:21;;;;;;;9.27;6.93;;;26.10;14.60;;;;;;5066956;28;20240;-72
2022/05/11 08:26:47;;;;;;;10.40;6.40;;;26.00;15.70;;;;;;5064394;28;20485;-71
2022/05/11 08:34:44;;;;;;;8.07;7.10;;;27.10;13.30;;;;;;5065918;28;20440;-72
2022/05/11 08:37:09;;;;;;;10.53;6.90;;;27.90;7.00;;;;;;5067001;28;20453;-72
2022/05/11 08:39:35;;;;;;;7.63;6.27;;;28.30;8.30;;;;;;5061911;28;20640;-73
2022/05/11 08:42:03;;;;;;;10.20;6.30;;;29.00;3.60;;;;;;5065586;28;20611;-73
2022/05/11 08:44:33;;;;;;;7.57;6.25;;;30.10;1.00;;;;;;5080561;28;20204;-73
2022/05/11 08:47:39;;;;;;;7.05;6.00;;;31.20;1.00;;;;;;5064988;28;20214;-73
2022/05/11 08:50:26;;;;;;;7.82;6.13;;;31.50;1.00;;;;;;5067405;28;20183;-72
2022/05/11 08:52:58;;;;;;;7.47;6.40;;;31.50;1.00;;;;;;5062418;28;20582;-72
2022/05/11 08:55:49;;;;;;;7.80;6.50;;;32.40;1.00;;;;;;5063008;28;20671;-73
2022/05/11 08:58:31;;;;;;;6.55;5.85;;;33.10;1.00;;;;;;5061728;28;20175;-71
2022/05/11 09:00:58;;;;;;;9.77;5.72;;;32.30;1.00;;;;;;5065707;28;20168;-71
2022/05/11 09:03:41;;;;;;;7.45;5.72;;;32.30;1.00;;;;;;5061946;28;20186;-73
2022/05/11 09:06:16;;;;;;;6.63;5.57;;;32.90;1.00;;;;;;5064121;28;20218;-73
2022/05/11 09:08:42;;;;;;;8.07;5.40;;;32.60;1.00;;;;;;5063319;28;20706;-73
2022/05/11 09:11:12;;;;;;;10.52;5.63;;;32.50;1.00;;;;;;5063282;28;20237;-74
2022/05/11 09:13:39;;;;;;;7.93;5.63;;;33.40;1.00;;;;;;5067072;28;20198;-74
2022/05/11 09:16:06;;;;;;;10.90;5.72;;;34.60;1.00;;;;;;5064444;28;20305;-73
2022/05/11 09:18:31;;;;;;;8.85;5.18;;;34.70;1.00;;;;;;5066477;28;20309;-74
2022/05/11 09:21:00;;;;;;;5.65;4.97;;;35.10;1.00;;;;;;5059915;28;20180;-73
2022/05/11 09:23:38;;;;;;;6.10;5.20;;;34.80;1.00;;;;;;5063794;28;20441;-71
2022/05/11 09:26:14;;;;;;;8.55;5.63;;;35.40;1.00;;;;;;5063657;28;20207;-72
2022/05/11 09:28:45;;;;;;;6.75;5.45;;;35.60;1.00;;;;;;5067205;28;20213;-71
2022/05/11 09:31:24;;;;;;;6.15;5.25;;;35.80;1.00;;;;;;5062185;28;20179;-72
2022/05/11 09:33:58;;;;;;;6.90;5.03;;;35.70;1.00;;;;;;5055101;28;20351;-72
2022/05/11 09:36:38;;;;;;;7.43;4.90;;;36.30;1.00;;;;;;5065097;28;20218;-72
2022/05/11 09:39:16;;;;;;;6.80;5.28;;;36.80;1.00;;;;;;5065719;28;20198;-72
2022/05/11 09:41:49;;;;;;;8.02;5.97;;;35.80;1.00;;;;;;5064323;28;20182;-70
2022/05/11 09:44:26;;;;;;;9.32;6.25;;;35.50;1.00;;;;;;5063444;28;20180;-71
2022/05/11 09:46:53;;;;;;;6.40;5.80;;;35.90;1.00;;;;;;5062251;28;20211;-72
2022/05/11 09:49:19;;;;;;;7.10;5.78;;;36.40;1.00;;;;;;5065137;28;20178;-72
2022/05/11 09:51:50;;;;;;;6.82;5.30;;;36.20;1.00;;;;;;5063066;28;20180;-71
2022/05/11 09:54:38;;;;;;;7.28;5.53;;;36.20;1.00;;;;;;5063447;28;20226;-72
2022/05/11 09:57:11;;;;;;;8.48;5.47;;;35.90;1.00;;;;;;5062248;28;20207;-71
2022/05/11 09:59:46;;;;;;;6.85;5.32;;;36.20;1.00;;;;;;5065305;28;20180;-72
2022/05/11 10:02:36;;;;;;;8.13;5.40;;;36.90;1.00;;;;;;5060528;28;20609;-71
2022/05/11 10:05:09;;;;;;;10.55;5.65;;;36.70;1.00;;;;;;5064973;28;20365;-72
2022/05/11 10:07:57;;;;;;;7.05;5.28;;;36.00;1.00;;;;;;5062648;28;20207;-72
2022/05/11 10:10:26;;;;;;;7.18;5.65;;;37.10;1.00;;;;;;5062580;28;20172;-71
2022/05/11 10:12:56;;;;;;;5.90;5.30;;;37.20;1.00;;;;;;5063975;28;20187;-71
2022/05/11 10:24:40;;;;;;;5.75;4.88;;;38.40;1.00;;;;;;5060358;28;20566;-71
2022/05/11 10:27:15;;;;;;;8.70;5.00;;;39.00;1.00;;;;;;5064309;28;20349;-72
2022/05/11 10:29:56;;;;;;;6.18;5.57;;;38.90;1.00;;;;;;5065231;28;20176;-71
2022/05/11 10:32:56;;;;;;;6.55;4.78;;;39.40;1.00;;;;;;5063186;28;20180;-71
2022/05/11 10:35:43;;;;;;;6.47;4.63;;;39.20;1.00;;;;;;5064329;28;20668;-72
2022/05/11 10:38:30;;;;;;;8.30;5.57;;;39.30;1.00;;;;;;5063104;28;20281;-71
2022/05/11 10:41:06;;;;;;;7.38;4.57;;;39.70;1.00;;;;;;5059942;28;20180;-71
2022/05/11 10:43:38;;;;;;;9.80;5.07;;;40.10;1.00;;;;;;5064377;28;20183;-71
2022/05/11 10:46:13;;;;;;;10.43;5.38;;;40.40;1.00;;;;;;5062229;28;20240;-72
2022/05/11 10:48:54;;;;;;;9.05;5.72;;;40.30;1.00;;;;;;5062673;28;20179;-71
2022/05/11 10:51:36;;;;;;;6.95;4.90;;;39.30;1.00;;;;;;5060590;28;20191;-70
2022/05/11 10:54:24;;;;;;;7.47;5.22;;;38.40;1.00;;;;;;5060114;28;20191;-70
2022/05/11 10:57:07;;;;;;;9.93;5.10;;;37.00;1.00;;;;;;5061440;28;20318;-72
2022/05/11 11:00:02;;;;;;;6.10;5.28;;;37.40;1.00;;;;;;5068678;28;20538;-71
2022/05/11 11:03:04;;;;;;;11.88;5.75;;;38.60;1.00;;;;;;5067516;28;20180;-71
2022/05/11 11:05:35;;;;;;;6.20;4.80;;;39.80;1.00;;;;;;5061108;28;20232;-71
2022/05/11 11:08:07;;;;;;;6.72;5.15;;;39.70;1.00;;;;;;5063471;28;20291;-71
2022/05/11 11:10:55;;;;;;;8.57;5.28;;;40.20;1.00;;;;;;5068343;28;20187;-71
2022/05/11 11:13:59;;;;;;;6.90;4.82;;;40.80;1.00;;;;;;5068919;28;20179;-71
2022/05/11 11:16:32;;;;;;;7.25;5.18;;;40.60;1.00;;;;;;5063810;28;20207;-71
2022/05/11 11:18:59;;;;;;;6.43;4.85;;;41.20;1.00;;;;;;5066479;28;20180;-71
2022/05/11 11:21:25;;;;;;;14.63;5.18;;;42.00;1.00;;;;;;5063143;28;20219;-70
2022/05/11 11:24:17;;;;;;;6.80;4.38;;;42.30;1.00;;;;;;5066350;28;20180;-71
2022/05/11 11:26:57;;;;;;;5.57;4.97;;;40.80;1.00;;;;;;5053606;28;20650;-71
2022/05/11 11:29:36;;;;;;;8.68;5.00;;;40.30;1.00;;;;;;5067418;28;20629;-71
2022/05/11 11:32:20;;;;;;;6.07;5.47;;;38.50;1.00;;;;;;5066577;28;20645;-71
2022/05/11 11:34:48;;;;;;;6.05;4.82;;;39.40;1.00;;;;;;5060904;28;20187;-72
2022/05/11 11:37:32;;;;;;;9.90;4.75;;;40.40;1.00;;;;;;5067536;28;20709;-72
2022/05/11 11:40:13;;;;;;;5.88;4.40;;;41.50;1.00;;;;;;5068530;28;20911;-71
2022/05/11 11:42:41;;;;;;;6.43;4.75;;;41.80;1.00;;;;;;5066913;28;20274;-70
2022/05/11 11:45:10;;;;;;;6.30;4.32;;;41.90;1.00;;;;;;5063902;28;20236;-71
2022/05/11 11:47:59;;;;;;;7.95;4.88;;;40.90;1.00;;;;;;5061108;28;20204;-71
2022/05/11 11:50:53;;;;;;;5.88;4.93;;;40.50;1.00;;;;;;5063199;28;20172;-71
2022/05/11 11:53:36;;;;;;;5.38;4.88;;;40.90;1.00;;;;;;5063015;28;20183;-71
2022/05/11 11:56:23;;;;;;;8.15;5.40;;;41.20;1.00;;;;;;5059606;28;20191;-71
2022/05/11 11:59:05;;;;;;;8.93;5.20;;;39.10;1.00;;;;;;5066344;28;20164;-71
2022/05/11 12:01:41;;;;;;;5.78;4.88;;;39.00;1.00;;;;;;5059559;28;20202;-71
2022/05/11 12:04:13;;;;;;;7.18;4.93;;;39.70;1.00;;;;;;5061566;28;20232;-71
2022/05/11 12:15:20;;;;;;;7.07;4.50;;;42.20;1.00;;;;;;5047974;28;20203;-71
2022/05/11 12:17:46;;;;;;;7.80;5.30;;;42.20;1.00;;;;;;5059042;28;20183;-71
2022/05/11 12:20:17;;;;;;;4.97;4.40;;;40.90;1.00;;;;;;5067888;28;20316;-71
2022/05/11 12:22:58;;;;;;;7.53;4.93;;;39.40;1.00;;;;;;5067211;28;20184;-69
2022/05/11 12:25:29;;;;;;;6.75;5.47;;;38.20;1.00;;;;;;5065736;28;20179;-70
2022/05/11 12:27:58;;;;;;;7.65;5.10;;;38.00;1.00;;;;;;5067585;28;20207;-71
2022/05/11 12:30:25;;;;;;;11.45;5.57;;;38.20;1.00;;;;;;5067727;28;20221;-71
2022/05/11 12:32:53;;;;;;;8.25;4.97;;;39.70;1.00;;;;;;5063495;28;20188;-70
2022/05/11 12:35:27;;;;;;;9.45;5.50;;;40.40;1.00;;;;;;5061852;28;20309;-71
2022/05/11 12:37:55;;;;;;;6.55;5.20;;;39.30;1.00;;;;;;5067640;28;20180;-71
2022/05/11 12:40:21;;;;;;;6.20;5.60;;;39.90;1.00;;;;;;5067643;28;20176;-71
2022/05/11 12:42:50;;;;;;;6.60;5.55;;;38.10;1.00;;;;;;5066852;28;20255;-71
2022/05/11 12:45:34;;;;;;;7.20;5.63;;;36.30;1.00;;;;;;5060387;28;20183;-71
2022/05/11 12:48:00;;;;;;;11.27;6.00;;;35.50;1.00;;;;;;5062567;28;20199;-71
2022/05/11 12:50:30;;;;;;;7.18;5.63;;;36.00;1.00;;;;;;5067411;28;20160;-70
2022/05/11 12:53:22;;;;;;;6.10;5.50;;;37.40;1.00;;;;;;5061996;28;20176;-71
2022/05/11 12:55:51;;;;;;;10.25;5.53;;;38.40;1.00;;;;;;5061546;28;20532;-70
2022/05/11 12:58:22;;;;;;;6.05;5.45;;;38.40;1.00;;;;;;5067601;28;20257;-71
2022/05/11 13:00:59;;;;;;;6.40;5.07;;;38.90;1.00;;;;;;5066496;28;20179;-70
2022/05/11 13:03:36;;;;;;;6.50;5.22;;;40.00;1.00;;;;;;5064299;28;20641;-71
2022/05/11 13:06:05;;;;;;;8.15;5.30;;;40.00;1.00;;;;;;5049074;28;20441;-70
2022/05/11 13:08:42;;;;;;;7.75;5.18;;;40.30;1.00;;;;;;5067802;28;20175;-71
2022/05/11 13:11:12;;;;;;;5.53;4.63;;;40.30;1.00;;;;;;5050202;28;20773;-71
2022/05/11 13:13:42;;;;;;;9.13;4.50;;;40.40;1.00;;;;;;5025306;28;20180;-71
2022/05/11 13:16:15;;;;;;;6.30;4.65;;;41.30;1.00;;;;;;5053936;28;20188;-70
2022/05/11 13:18:41;;;;;;;11.15;4.70;;;41.80;1.00;;;;;;5067896;28;20203;-71
2022/05/11 13:21:08;;;;;;;6.82;5.18;;;41.70;1.00;;;;;;5068054;28;20168;-70
2022/05/11 13:23:41;;;;;;;6.57;4.93;;;40.70;1.00;;;;;;5070940;28;20187;-71
2022/05/11 13:26:09;;;;;;;6.53;5.10;;;41.00;1.00;;;;;;5058748;28;20198;-71
2022/05/11 13:28:53;;;;;;;8.50;4.75;;;41.30;1.00;;;;;;5070946;28;20164;-71
2022/05/11 13:31:32;;;;;;;6.47;4.78;;;41.20;1.00;;;;;;5069560;28;20198;-71
2022/05/11 13:34:01;;;;;;;6.22;4.75;;;40.40;1.00;;;;;;5070091;28;20833;-71
2022/05/11 13:36:39;;;;;;;5.50;5.00;;;40.40;1.00;;;;;;5063837;28;20203;-71
2022/05/11 13:39:14;;;;;;;6.38;4.70;;;39.80;1.00;;;;;;5063940;28;20191;-71